Time;durP1;ratioP1;P1;durP2;ratioP2;P2;SDS_P1;SDS_P2;PMS_P1;PMS_P2;Temp;Humidity;BMP_temperature;BMP_pressure;BME280_temperature;BME280_humidity;BME280_pressure;Samples;Min_cycle;Max_cycle;Signal;HPM_P1;HPM_P2
2022/06/25 00:00:40;;;;;;;2.1;1.4;;;;;;;15.27;95.90625;936.9423;;;;
2022/06/25 00:03:08;;;;;;;3.2;0.5;;;;;;;15.26;95.75488;936.9802;;;;
2022/06/25 00:05:47;;;;;;;0.7;0.5;;;;;;;15.21;94.98535;936.9645;;;;
2022/06/25 00:08:14;;;;;;;0.5;0.4;;;;;;;15.25;94.7832;937.0034;;;;
2022/06/25 00:10:40;;;;;;;0.7;0.4;;;;;;;15.28;94.7334;937.0256;;;;
2022/06/25 00:13:10;;;;;;;1;0.5;;;;;;;15.32;94.4873;937.0773;;;;
2022/06/25 00:15:59;;;;;;;0.9;0.8;;;;;;;15.32;94.36035;936.9988;;;;
2022/06/25 00:18:32;;;;;;;1.1;1;;;;;;;15.34;93.88086;937.0995;;;;
2022/06/25 00:21:01;;;;;;;1.8;1.2;;;;;;;15.33;95.04297;937.0909;;;;
2022/06/25 00:23:40;;;;;;;1.6;0.8;;;;;;;15.36;95.29102;937.101;;;;
2022/06/25 00:26:05;;;;;;;1.3;0.9;;;;;;;15.28;94.48926;937.0192;;;;
2022/06/25 00:28:31;;;;;;;1.6;1;;;;;;;15.3;94.79297;937.0214;;;;
2022/06/25 00:31:02;;;;;;;2.7;1.1;;;;;;;15.42;94.94922;937.1439;;;;
2022/06/25 00:33:27;;;;;;;3.3;2.2;;;;;;;15.43;94.61426;937.1301;;;;
2022/06/25 00:35:52;;;;;;;1.6;1.1;;;;;;;15.35;94.78125;937.1613;;;;
2022/06/25 00:38:17;;;;;;;2.4;1.1;;;;;;;15.4;94.6543;937.1767;;;;
2022/06/25 00:40:44;;;;;;;1;0.8;;;;;;;15.43;94.41797;937.1719;;;;
2022/06/25 00:43:11;;;;;;;1.4;0.9;;;;;;;15.42;94.26563;937.1801;;;;
2022/06/25 00:45:37;;;;;;;0.8;0.8;;;;;;;15.36;94.16016;937.1997;;;;
2022/06/25 00:48:05;;;;;;;1.8;1;;;;;;;15.42;94.94727;937.1688;;;;
2022/06/25 00:50:31;;;;;;;1.7;1.5;;;;;;;15.42;95.21289;937.2154;;;;
2022/06/25 00:52:57;;;;;;;1;0.8;;;;;;;15.41;94.91113;937.1926;;;;
2022/06/25 00:55:23;;;;;;;1.1;0.7;;;;;;;15.27;94.70801;937.1854;;;;
2022/06/25 00:57:48;;;;;;;0.7;0.5;;;;;;;15.14;94.89844;937.184;;;;
2022/06/25 01:00:18;;;;;;;2.6;0.7;;;;;;;15.18;95.26367;937.2397;;;;
2022/06/25 01:02:50;;;;;;;1.4;0.6;;;;;;;15.23;94.84668;937.2459;;;;
2022/06/25 01:05:19;;;;;;;0.6;0.6;;;;;;;14.95;95.69922;937.2039;;;;
2022/06/25 01:07:44;;;;;;;1.1;0.8;;;;;;;15.01;96.45117;937.1472;;;;
2022/06/25 01:10:12;;;;;;;1.6;0.8;;;;;;;14.91;96.80957;937.2123;;;;
2022/06/25 01:12:37;;;;;;;2.4;1.1;;;;;;;14.94;96.64258;937.1719;;;;
2022/06/25 01:15:04;;;;;;;0.8;0.8;;;;;;;14.96;96.45215;937.1204;;;;
2022/06/25 01:17:31;;;;;;;1.1;0.8;;;;;;;15.03;96.08789;937.0895;;;;
2022/06/25 01:19:55;;;;;;;1.6;0.7;;;;;;;15.13;96.00195;937.0759;;;;
2022/06/25 01:22:28;;;;;;;0.7;0.7;;;;;;;15.19;96.39844;937.0687;;;;
2022/06/25 01:24:55;;;;;;;1.4;0.8;;;;;;;15.07;95.48242;937.1317;;;;
2022/06/25 01:27:20;;;;;;;0.8;0.7;;;;;;;15.07;95.4248;937.0772;;;;
2022/06/25 01:29:50;;;;;;;0.7;0.7;;;;;;;15.12;95.4248;937.0286;;;;
2022/06/25 01:32:15;;;;;;;0.7;0.7;;;;;;;15.06;95.45898;937.0485;;;;
2022/06/25 01:34:42;;;;;;;1.1;0.6;;;;;;;14.95;95.51465;937.0797;;;;
2022/06/25 01:37:08;;;;;;;0.9;0.4;;;;;;;14.91;96.02539;937.0295;;;;
2022/06/25 01:39:36;;;;;;;0.9;0.6;;;;;;;14.78;96.27246;937.024;;;;
2022/06/25 01:42:01;;;;;;;0.6;0.6;;;;;;;14.95;95.74512;937.0019;;;;
2022/06/25 01:44:33;;;;;;;0.7;0.4;;;;;;;14.75;96.53125;937.0338;;;;
2022/06/25 01:47:07;;;;;;;1.1;0.3;;;;;;;14.81;96.24609;937.0181;;;;
2022/06/25 01:49:34;;;;;;;0.9;0.5;;;;;;;14.85;96.65918;937.0148;;;;
2022/06/25 01:51:59;;;;;;;1.4;0.6;;;;;;;14.9;96.4248;937.0408;;;;
2022/06/25 01:54:24;;;;;;;0.8;0.6;;;;;;;14.88;96.4209;936.968;;;;
2022/06/25 01:56:51;;;;;;;0.6;0.6;;;;;;;14.88;96.52734;937.0394;;;;
2022/06/25 01:59:19;;;;;;;1.6;0.7;;;;;;;14.84;97.2207;937.0294;;;;
2022/06/25 02:01:44;;;;;;;1.3;0.7;;;;;;;14.94;96.8623;937.0108;;;;
2022/06/25 02:04:09;;;;;;;0.5;0.5;;;;;;;14.85;97.00293;936.9956;;;;
2022/06/25 02:06:37;;;;;;;1.1;0.6;;;;;;;14.69;98.23535;936.9574;;;;
2022/06/25 02:09:08;;;;;;;0.9;0.9;;;;;;;14.69;98.24707;936.9366;;;;
2022/06/25 02:11:33;;;;;;;0.8;0.8;;;;;;;14.74;97.77246;936.9105;;;;
2022/06/25 02:14:02;;;;;;;0.8;0.7;;;;;;;14.79;97.83105;937.0086;;;;
2022/06/25 02:16:33;;;;;;;0.7;0.7;;;;;;;14.86;97.54688;936.9473;;;;
2022/06/25 02:18:59;;;;;;;0.6;0.6;;;;;;;14.89;97.29004;936.9662;;;;
2022/06/25 02:21:27;;;;;;;2.4;0.6;;;;;;;14.92;96.55566;936.9797;;;;
2022/06/25 02:23:57;;;;;;;1.3;0.8;;;;;;;14.79;96.41309;936.9717;;;;
2022/06/25 02:26:26;;;;;;;0.7;0.7;;;;;;;14.74;96.7002;936.9601;;;;
2022/06/25 02:28:51;;;;;;;0.8;0.7;;;;;;;14.73;96.98828;937.0012;;;;
2022/06/25 02:31:17;;;;;;;0.9;0.5;;;;;;;14.85;96.74805;937.0622;;;;
2022/06/25 02:33:43;;;;;;;1.1;0.7;;;;;;;14.76;96.6377;936.9631;;;;
2022/06/25 02:36:09;;;;;;;1.5;0.5;;;;;;;14.76;96.4873;937.0185;;;;
2022/06/25 02:38:37;;;;;;;1.4;0.6;;;;;;;14.84;96.32129;936.9644;;;;
2022/06/25 02:41:04;;;;;;;0.7;0.7;;;;;;;14.79;96.2168;936.9902;;;;
2022/06/25 02:43:33;;;;;;;2;0.7;;;;;;;14.78;96.52832;936.9999;;;;
2022/06/25 02:46:03;;;;;;;0.5;0.5;;;;;;;14.64;96.50586;937.0156;;;;
2022/06/25 02:48:33;;;;;;;0.4;0.3;;;;;;;14.61;96.24609;936.9899;;;;
2022/06/25 02:51:02;;;;;;;1;0.6;;;;;;;14.66;95.94727;937.017;;;;
2022/06/25 02:53:28;;;;;;;0.7;0.6;;;;;;;14.48;96.5293;936.9468;;;;
2022/06/25 03:00:51;;;;;;;1;0.5;;;;;;;14.41;96.24805;937.1342;;;;
2022/06/25 03:03:17;;;;;;;0.6;0.6;;;;;;;14.42;96.16992;937.088;;;;
2022/06/25 03:05:47;;;;;;;0.9;0.4;;;;;;;14.13;97.16699;937.1205;;;;
2022/06/25 03:08:16;;;;;;;1.9;0.6;;;;;;;13.94;98.60742;937.163;;;;
2022/06/25 03:10:45;;;;;;;0.7;0.7;;;;;;;13.91;99.45313;937.1992;;;;
2022/06/25 03:13:15;;;;;;;1.7;0.7;;;;;;;13.96;99.42871;937.162;;;;
2022/06/25 03:15:53;;;;;;;1;0.7;;;;;;;13.96;99.51074;937.2068;;;;
2022/06/25 03:18:20;;;;;;;1.1;0.9;;;;;;;13.95;99.69141;937.1838;;;;
2022/06/25 03:20:50;;;;;;;1;0.9;;;;;;;13.94;99.55273;937.1934;;;;
2022/06/25 03:23:13;;;;;;;1;1;;;;;;;14;99.65723;937.1906;;;;
2022/06/25 03:25:38;;;;;;;1;1;;;;;;;14.05;98.87402;937.2499;;;;
2022/06/25 03:28:05;;;;;;;1.6;1.1;;;;;;;14.05;98.64355;937.2203;;;;
2022/06/25 03:30:30;;;;;;;0.9;0.9;;;;;;;14.08;97.98438;937.2737;;;;
2022/06/25 03:32:59;;;;;;;1.4;1;;;;;;;13.76;98.84277;937.1572;;;;
2022/06/25 03:35:25;;;;;;;0.7;0.7;;;;;;;13.51;100;937.2324;;;;
2022/06/25 03:37:50;;;;;;;0.8;0.8;;;;;;;13.48;100;937.2988;;;;
2022/06/25 03:40:20;;;;;;;0.9;0.9;;;;;;;13.47;99.88965;937.3109;;;;
2022/06/25 03:42:45;;;;;;;0.7;0.7;;;;;;;13.51;99.4082;937.2707;;;;
2022/06/25 03:45:10;;;;;;;1.3;0.7;;;;;;;13.58;98.87305;937.3713;;;;
2022/06/25 03:47:36;;;;;;;1.2;0.7;;;;;;;13.45;99.52051;937.2813;;;;
2022/06/25 03:50:01;;;;;;;0.7;0.7;;;;;;;13.42;100;937.3222;;;;
2022/06/25 03:52:33;;;;;;;0.7;0.7;;;;;;;13.42;100;937.379;;;;
2022/06/25 03:54:59;;;;;;;1.1;1;;;;;;;13.37;100;937.3844;;;;
2022/06/25 03:57:24;;;;;;;1.5;1.2;;;;;;;13.37;100;937.3389;;;;
2022/06/25 03:59:56;;;;;;;1.6;1.1;;;;;;;13.49;100;937.3396;;;;
2022/06/25 04:02:37;;;;;;;0.9;0.9;;;;;;;13.54;100;937.4522;;;;
2022/06/25 04:05:02;;;;;;;0.8;0.8;;;;;;;13.54;100;937.4291;;;;
2022/06/25 04:07:34;;;;;;;1;1;;;;;;;13.39;100;937.4364;;;;
2022/06/25 04:10:05;;;;;;;2.9;1.5;;;;;;;13.52;100;937.4691;;;;
2022/06/25 04:12:40;;;;;;;1.5;1.2;;;;;;;13.55;99.87598;937.4738;;;;
2022/06/25 04:15:12;;;;;;;2.1;1.4;;;;;;;13.7;99.30176;937.4391;;;;
2022/06/25 04:17:37;;;;;;;1.6;1.2;;;;;;;13.87;98.70605;937.4619;;;;
2022/06/25 04:20:04;;;;;;;1.4;1.1;;;;;;;13.77;97.93555;937.4364;;;;
2022/06/25 04:22:30;;;;;;;1;1;;;;;;;13.86;97.65723;937.4755;;;;
2022/06/25 04:24:58;;;;;;;1.2;1.1;;;;;;;13.92;97.02637;937.3904;;;;
2022/06/25 04:29:48;;;;;;;1.9;1.1;;;;;;;13.93;97.31641;937.4536;;;;
2022/06/25 04:32:18;;;;;;;1.4;1.2;;;;;;;14.02;96.49609;937.4503;;;;
2022/06/25 04:34:43;;;;;;;1.2;0.9;;;;;;;13.93;96.04102;937.4792;;;;
2022/06/25 04:37:13;;;;;;;1.3;1;;;;;;;13.89;96.32813;937.4642;;;;
2022/06/25 04:39:42;;;;;;;0.9;0.9;;;;;;;13.98;96.28125;937.5502;;;;
2022/06/25 04:42:14;;;;;;;2.6;1.2;;;;;;;13.94;96.00684;937.508;;;;
2022/06/25 04:44:43;;;;;;;2.1;1.6;;;;;;;14.03;95.98047;937.4966;;;;
2022/06/25 04:47:09;;;;;;;1.3;1.2;;;;;;;14.08;95.85254;937.5132;;;;
2022/06/25 04:49:38;;;;;;;3;1.6;;;;;;;14.14;94.78613;937.5288;;;;
2022/06/25 04:52:08;;;;;;;1.2;1.1;;;;;;;14.09;94.38281;937.5211;;;;
2022/06/25 04:54:33;;;;;;;0.9;0.9;;;;;;;14;94.58203;937.5461;;;;
2022/06/25 04:57:02;;;;;;;0.8;0.8;;;;;;;14.04;94.56641;937.5103;;;;
2022/06/25 04:59:27;;;;;;;0.7;0.7;;;;;;;14.04;94.62598;937.515;;;;
2022/06/25 05:01:58;;;;;;;1.1;0.7;;;;;;;14.04;95.08691;937.4861;;;;
2022/06/25 05:04:28;;;;;;;1;0.9;;;;;;;14.61;98.03223;937.5308;;;;
2022/06/25 05:06:58;;;;;;;0.7;0.5;;;;;;;15.66;90.27539;937.527;;;;
2022/06/25 05:09:22;;;;;;;0.8;0.7;;;;;;;17.08;84.18164;937.541;;;;
2022/06/25 05:11:51;;;;;;;0.8;0.6;;;;;;;18.52;77.35352;937.4586;;;;
2022/06/25 05:14:16;;;;;;;1.7;0.4;;;;;;;19.6;70.4082;937.4623;;;;
2022/06/25 05:16:45;;;;;;;0.5;0.5;;;;;;;20.29;68.07715;937.4608;;;;
2022/06/25 05:19:14;;;;;;;1.5;0.4;;;;;;;21.14;64.26563;937.5218;;;;
2022/06/25 05:21:43;;;;;;;0.3;0.3;;;;;;;20.54;65.74512;937.4659;;;;
2022/06/25 05:24:07;;;;;;;3;0.4;;;;;;;20.93;65.45117;937.5021;;;;
2022/06/25 05:26:33;;;;;;;0.5;0.5;;;;;;;21.03;66.23828;937.4944;;;;
2022/06/25 05:28:59;;;;;;;0.9;0.5;;;;;;;21.39;64.34961;937.51;;;;
2022/06/25 05:31:28;;;;;;;1.1;0.4;;;;;;;21.24;63.84863;937.5367;;;;
2022/06/25 05:33:53;;;;;;;0.3;0.3;;;;;;;20.74;65.17773;937.5751;;;;
2022/06/25 05:36:24;;;;;;;0.5;0.5;;;;;;;21.41;61.53125;937.5684;;;;
2022/06/25 05:38:55;;;;;;;0.4;0.4;;;;;;;20.91;64.29102;937.5668;;;;
2022/06/25 05:41:21;;;;;;;0.8;0.5;;;;;;;21.89;62.52441;937.6323;;;;
2022/06/25 05:43:55;;;;;;;0.6;0.4;;;;;;;22.66;58.98242;937.6298;;;;
2022/06/25 05:46:20;;;;;;;1.3;0.4;;;;;;;23.19;57.01953;937.5595;;;;
2022/06/25 05:48:46;;;;;;;0.7;0.4;;;;;;;22.33;60.86133;937.6636;;;;
2022/06/25 05:51:11;;;;;;;0.4;0.3;;;;;;;22.44;57.68555;937.6769;;;;
2022/06/25 05:53:41;;;;;;;0.4;0.4;;;;;;;24.46;54.56543;937.585;;;;
2022/06/25 05:56:11;;;;;;;0.7;0.6;;;;;;;25.3;53.88867;937.6693;;;;
2022/06/25 05:58:36;;;;;;;0.3;0.3;;;;;;;25.4;51.95215;937.6545;;;;
2022/06/25 06:01:04;;;;;;;0.4;0.4;;;;;;;26.53;48.06934;937.7101;;;;
2022/06/25 06:03:32;;;;;;;0.7;0.5;;;;;;;26.4;48.81348;937.6814;;;;
2022/06/25 06:06:00;;;;;;;0.3;0.3;;;;;;;26.09;49.1582;937.7234;;;;
2022/06/25 06:08:33;;;;;;;1.4;0.4;;;;;;;25.97;49.36914;937.7506;;;;
2022/06/25 06:11:06;;;;;;;0.4;0.4;;;;;;;26.88;47.66895;937.7425;;;;
2022/06/25 06:13:38;;;;;;;0.9;0.5;;;;;;;26.71;48.13574;937.7751;;;;
2022/06/25 06:16:04;;;;;;;1.1;0.4;;;;;;;25.82;49.25879;937.7519;;;;
2022/06/25 06:18:36;;;;;;;1.1;0.7;;;;;;;27.47;46.23633;937.7395;;;;
2022/06/25 06:21:08;;;;;;;0.3;0.3;;;;;;;27.71;44.16113;937.6717;;;;
2022/06/25 06:23:37;;;;;;;0.5;0.5;;;;;;;27.9;43.38379;937.6806;;;;
2022/06/25 06:26:09;;;;;;;2.3;0.7;;;;;;;27.33;43.87402;937.7722;;;;
2022/06/25 06:28:43;;;;;;;0.6;0.3;;;;;;;27.02;43.66504;937.7581;;;;
2022/06/25 06:31:11;;;;;;;1.7;0.8;;;;;;;26.43;46.60254;937.7611;;;;
2022/06/25 06:33:37;;;;;;;0.6;0.3;;;;;;;25.31;48.00977;937.7389;;;;
2022/06/25 06:36:02;;;;;;;0.8;0.6;;;;;;;26.6;45.53223;937.7103;;;;
2022/06/25 06:38:31;;;;;;;2;0.3;;;;;;;27.04;45.71875;937.7481;;;;
2022/06/25 06:41:02;;;;;;;0.9;0.4;;;;;;;27.94;43.67188;937.7618;;;;
2022/06/25 06:43:33;;;;;;;1.2;0.7;;;;;;;28.33;42.94922;937.7413;;;;
2022/06/25 06:46:05;;;;;;;0.8;0.4;;;;;;;27.28;46.7041;937.7078;;;;
2022/06/25 06:48:36;;;;;;;1;0.4;;;;;;;26.64;46.63574;937.6816;;;;
2022/06/25 06:51:06;;;;;;;0.2;0.2;;;;;;;25.53;47.18359;937.6401;;;;
2022/06/25 06:53:39;;;;;;;0.4;0.4;;;;;;;26.98;46.10254;937.6143;;;;
2022/06/25 06:56:11;;;;;;;1;0.3;;;;;;;27.73;45.70508;937.6292;;;;
2022/06/25 06:58:41;;;;;;;0.3;0.3;;;;;;;29.53;39.08301;937.5211;;;;
2022/06/25 07:01:11;;;;;;;0.3;0.3;;;;;;;28.07;46.17969;937.5417;;;;
2022/06/25 07:03:36;;;;;;;0.3;0.3;;;;;;;28.83;41.62695;937.4991;;;;
2022/06/25 07:06:06;;;;;;;0.4;0.4;;;;;;;30.07;39.58301;937.4939;;;;
2022/06/25 07:08:37;;;;;;;0.5;0.2;;;;;;;31.31;39.99023;937.4495;;;;
2022/06/25 07:11:27;;;;;;;0.3;0.3;;;;;;;31.59;35.47852;937.3853;;;;
2022/06/25 07:13:28;;;;;;;0.4;0.4;;;;;;;30.14;39.91113;937.4227;;;;
2022/06/25 07:16:00;;;;;;;1.2;0.5;;;;;;;28.9;44.16992;937.3368;;;;
2022/06/25 07:18:29;;;;;;;0.3;0.3;;;;;;;29.79;39.53418;937.3748;;;;
2022/06/25 07:20:59;;;;;;;0.3;0.3;;;;;;;30.1;39.86035;937.366;;;;
2022/06/25 07:23:29;;;;;;;0.6;0.5;;;;;;;32.23;35.39551;937.2946;;;;
2022/06/25 07:25:54;;;;;;;0.6;0.5;;;;;;;31.32;35.7793;937.327;;;;
2022/06/25 07:28:22;;;;;;;1.5;0.5;;;;;;;31.75;36.62793;937.2636;;;;
2022/06/25 07:30:47;;;;;;;0.3;0.3;;;;;;;31.01;37.12988;937.2649;;;;
2022/06/25 07:33:16;;;;;;;1.2;0.5;;;;;;;31.87;36.75684;937.2452;;;;
2022/06/25 07:35:40;;;;;;;0.5;0.5;;;;;;;32.39;35.40723;937.2043;;;;
2022/06/25 07:38:06;;;;;;;1.9;0.2;;;;;;;30.11;38.30957;937.1987;;;;
2022/06/25 07:40:39;;;;;;;0.3;0.3;;;;;;;30.27;37.71387;937.2048;;;;
2022/06/25 07:43:05;;;;;;;0.4;0.4;;;;;;;30.72;34.77637;937.1844;;;;
2022/06/25 07:45:32;;;;;;;0.7;0.4;;;;;;;29.43;38.15625;937.1586;;;;
2022/06/25 07:47:56;;;;;;;2.1;0.5;;;;;;;28.67;37.9248;937.1539;;;;
2022/06/25 07:52:58;;;;;;;0.3;0.3;;;;;;;31.79;33.64844;937.1786;;;;
2022/06/25 07:55:34;;;;;;;0.3;0.3;;;;;;;30.69;37.24707;937.1503;;;;
2022/06/25 07:58:00;;;;;;;0.4;0.4;;;;;;;30.87;36.65234;937.1275;;;;
2022/06/25 08:00:30;;;;;;;0.7;0.2;;;;;;;29.37;39.70117;937.1304;;;;
2022/06/25 08:03:02;;;;;;;0.4;0.3;;;;;;;29.63;41.70117;937.1119;;;;
2022/06/25 08:05:32;;;;;;;0.6;0.3;;;;;;;30.37;37.4834;937.1301;;;;
2022/06/25 08:07:58;;;;;;;0.3;0.2;;;;;;;30.84;38.01172;937.123;;;;
2022/06/25 08:10:27;;;;;;;0.4;0.4;;;;;;;30.54;37.37891;937.1339;;;;
2022/06/25 08:12:52;;;;;;;0.3;0.2;;;;;;;30.88;37.74121;937.0744;;;;
2022/06/25 08:15:20;;;;;;;0.4;0.2;;;;;;;29.66;39.58301;937.0908;;;;
2022/06/25 08:17:48;;;;;;;0.2;0.2;;;;;;;30.19;36.55078;937.0886;;;;
2022/06/25 08:20:14;;;;;;;0.7;0.3;;;;;;;30.69;36.79297;937.0845;;;;
2022/06/25 08:22:49;;;;;;;0.6;0.4;;;;;;;31.69;35.23438;936.9902;;;;
2022/06/25 08:25:15;;;;;;;0.5;0.5;;;;;;;31.66;36.57227;936.9955;;;;
2022/06/25 08:27:43;;;;;;;1.1;0.3;;;;;;;32.24;34.48535;936.9802;;;;
2022/06/25 08:30:08;;;;;;;0.4;0.4;;;;;;;30.8;37.02832;937.0244;;;;
2022/06/25 08:32:33;;;;;;;0.3;0.3;;;;;;;29.96;38.06934;936.9999;;;;
2022/06/25 08:35:08;;;;;;;0.3;0.3;;;;;;;28.75;42.71582;936.9625;;;;
2022/06/25 08:37:41;;;;;;;0.3;0.3;;;;;;;30.93;38.60547;936.9333;;;;
2022/06/25 08:40:19;;;;;;;0.3;0.3;;;;;;;29.13;41.8457;936.9197;;;;
2022/06/25 08:42:44;;;;;;;0.4;0.4;;;;;;;30.54;40.69922;936.9349;;;;
2022/06/25 08:45:10;;;;;;;0.7;0.3;;;;;;;31.52;36.91992;936.8434;;;;
2022/06/25 08:47:38;;;;;;;0.4;0.4;;;;;;;33.31;32.60645;936.8044;;;;
2022/06/25 08:50:03;;;;;;;0.5;0.3;;;;;;;32.43;36.25098;936.8389;;;;
2022/06/25 08:52:30;;;;;;;1;0.3;;;;;;;32.35;36.58008;936.8195;;;;
2022/06/25 08:54:55;;;;;;;0.5;0.3;;;;;;;33.47;34.26563;936.8069;;;;
2022/06/25 08:57:21;;;;;;;0.7;0.5;;;;;;;33.31;32.75098;936.7372;;;;
2022/06/25 08:59:46;;;;;;;0.7;0.3;;;;;;;31.31;36.42578;936.7157;;;;
2022/06/25 09:02:11;;;;;;;0.5;0.4;;;;;;;31.25;38.40625;936.6922;;;;
2022/06/25 09:04:36;;;;;;;0.4;0.4;;;;;;;30.28;41.39258;936.6537;;;;
2022/06/25 09:07:05;;;;;;;0.4;0.4;;;;;;;28.68;43.95703;936.6013;;;;
2022/06/25 09:09:34;;;;;;;1.2;0.6;;;;;;;29.38;40.22559;936.5689;;;;
2022/06/25 09:12:04;;;;;;;1.1;0.4;;;;;;;29.37;40.57031;936.5266;;;;
2022/06/25 09:14:28;;;;;;;0.4;0.4;;;;;;;27.96;39.58789;936.4623;;;;
2022/06/25 09:16:53;;;;;;;0.4;0.4;;;;;;;27.41;43.63281;936.4877;;;;
2022/06/25 09:19:18;;;;;;;0.3;0.3;;;;;;;27.46;44.62207;936.4117;;;;
2022/06/25 09:21:47;;;;;;;0.3;0.3;;;;;;;26.67;47.49219;936.483;;;;
2022/06/25 09:24:12;;;;;;;0.4;0.4;;;;;;;26.24;48.70117;936.4562;;;;
2022/06/25 09:26:39;;;;;;;0.3;0.3;;;;;;;26.55;45.19531;936.4003;;;;
2022/06/25 09:29:04;;;;;;;0.5;0.2;;;;;;;26.44;44.22559;936.4366;;;;
2022/06/25 09:31:30;;;;;;;0.5;0.3;;;;;;;26.26;45.55664;936.4803;;;;
2022/06/25 09:33:55;;;;;;;0.2;0.2;;;;;;;25.96;46.21094;936.4543;;;;
2022/06/25 09:36:20;;;;;;;0.3;0.3;;;;;;;26.75;43.99512;936.4238;;;;
2022/06/25 09:38:45;;;;;;;0.3;0.3;;;;;;;27.72;45.43066;936.3746;;;;
2022/06/25 09:41:10;;;;;;;0.5;0.3;;;;;;;28.85;42.32031;936.3669;;;;
2022/06/25 09:43:41;;;;;;;1.2;0.3;;;;;;;29.6;40.66211;936.412;;;;
2022/06/25 09:46:04;;;;;;;0.3;0.2;;;;;;;27.89;41.2207;936.3326;;;;
2022/06/25 09:48:34;;;;;;;0.4;0.3;;;;;;;27.83;45.26367;936.3663;;;;
2022/06/25 09:50:59;;;;;;;1.2;0.4;;;;;;;28.13;43.94043;936.2935;;;;
2022/06/25 09:53:27;;;;;;;1.4;0.4;;;;;;;26.96;41.82324;936.2322;;;;
2022/06/25 09:55:52;;;;;;;0.2;0.2;;;;;;;26.11;45.78906;936.3168;;;;
2022/06/25 09:58:20;;;;;;;2.6;0.4;;;;;;;25.39;46.90918;936.2394;;;;
2022/06/25 10:00:45;;;;;;;0.3;0.3;;;;;;;26.55;47.16016;936.1635;;;;
2022/06/25 10:03:15;;;;;;;0.3;0.3;;;;;;;26.72;48.88477;936.1756;;;;
2022/06/25 10:05:45;;;;;;;0.4;0.4;;;;;;;27.07;42.84082;936.1027;;;;
2022/06/25 10:08:11;;;;;;;0.4;0.3;;;;;;;26.48;49.80469;936.0541;;;;
2022/06/25 10:10:36;;;;;;;0.9;0.3;;;;;;;26.93;47.75684;936.1175;;;;
2022/06/25 10:13:01;;;;;;;0.6;0.3;;;;;;;26.73;48.11523;936.0917;;;;
2022/06/25 10:15:39;;;;;;;0.3;0.3;;;;;;;26.51;47.28613;936.0305;;;;
2022/06/25 10:18:04;;;;;;;0.3;0.3;;;;;;;25.99;51.08691;936.0737;;;;
2022/06/25 10:20:33;;;;;;;0.9;0.4;;;;;;;25.92;50.31055;936.0424;;;;
2022/06/25 10:23:03;;;;;;;0.5;0.3;;;;;;;25.49;50.56836;935.97;;;;
2022/06/25 10:25:30;;;;;;;0.4;0.4;;;;;;;25.55;48.41504;936.0611;;;;
2022/06/25 10:27:55;;;;;;;2.5;0.4;;;;;;;25.46;50.81348;936.0153;;;;
2022/06/25 10:30:27;;;;;;;0.4;0.2;;;;;;;25.72;51.57617;935.9867;;;;
2022/06/25 10:32:54;;;;;;;0.6;0.4;;;;;;;25.58;53.50879;936.0027;;;;
2022/06/25 10:35:22;;;;;;;0.4;0.4;;;;;;;26.33;47.72949;935.9023;;;;
2022/06/25 10:37:47;;;;;;;3.3;0.5;;;;;;;26.71;45.54199;935.8804;;;;
2022/06/25 10:40:14;;;;;;;0.9;0.3;;;;;;;26.86;48.03418;935.8752;;;;
2022/06/25 10:43:01;;;;;;;0.4;0.4;;;;;;;26.63;47.20508;935.834;;;;
2022/06/25 10:45:14;;;;;;;0.7;0.3;;;;;;;26.46;47.44727;935.7413;;;;
2022/06/25 10:47:46;;;;;;;1;0.6;;;;;;;26.44;48.65137;935.777;;;;
2022/06/25 10:50:18;;;;;;;0.4;0.4;;;;;;;26.17;49.55762;935.7242;;;;
2022/06/25 10:52:47;;;;;;;0.4;0.4;;;;;;;25.95;51.55469;935.7293;;;;
2022/06/25 10:55:16;;;;;;;0.6;0.3;;;;;;;25.6;46.43457;935.6376;;;;
2022/06/25 10:57:39;;;;;;;0.3;0.3;;;;;;;24.91;52.20215;935.6639;;;;
2022/06/25 11:00:12;;;;;;;0.6;0.4;;;;;;;25.31;52.1543;935.6789;;;;
2022/06/25 11:02:37;;;;;;;0.4;0.4;;;;;;;25.46;50.02246;935.7202;;;;
2022/06/25 11:05:07;;;;;;;0.6;0.3;;;;;;;25.27;53.88574;935.6891;;;;
2022/06/25 11:07:32;;;;;;;0.3;0.3;;;;;;;25.91;48.44141;935.6369;;;;
2022/06/25 11:09:59;;;;;;;0.7;0.4;;;;;;;25.9;47.62402;935.6551;;;;
2022/06/25 11:12:25;;;;;;;0.4;0.4;;;;;;;26.21;51.75195;935.5552;;;;
2022/06/25 11:14:50;;;;;;;0.3;0.3;;;;;;;26.08;53.69922;935.5069;;;;
2022/06/25 11:17:19;;;;;;;0.4;0.4;;;;;;;26.03;52.02539;935.509;;;;
2022/06/25 11:19:44;;;;;;;0.3;0.3;;;;;;;26.4;49.21582;935.4847;;;;
2022/06/25 11:22:09;;;;;;;0.6;0.3;;;;;;;25.98;50.73145;935.4492;;;;
2022/06/25 11:28:47;;;;;;;0.4;0.3;;;;;;;25.08;52.24609;935.4067;;;;
2022/06/25 11:29:28;;;;;;;1.5;0.4;;;;;;;25.64;50.79883;935.4821;;;;
2022/06/25 11:31:53;;;;;;;0.8;0.3;;;;;;;25.98;51.19238;935.5259;;;;
2022/06/25 11:34:20;;;;;;;0.3;0.3;;;;;;;26.26;47.6748;935.4506;;;;
2022/06/25 11:36:45;;;;;;;0.3;0.3;;;;;;;26.23;48.43945;935.4468;;;;
2022/06/25 11:39:10;;;;;;;0.7;0.5;;;;;;;26.05;50.77344;935.3627;;;;
2022/06/25 11:41:35;;;;;;;0.6;0.5;;;;;;;25.99;51.59473;935.3063;;;;
2022/06/25 11:44:06;;;;;;;1.3;0.3;;;;;;;25.16;54.37988;935.353;;;;
2022/06/25 11:46:37;;;;;;;0.5;0.5;;;;;;;25.16;52.99805;935.3253;;;;
2022/06/25 11:49:02;;;;;;;0.5;0.4;;;;;;;24.97;54.21387;935.2254;;;;
2022/06/25 11:51:31;;;;;;;1.5;0.5;;;;;;;24.9;53.52246;935.2711;;;;
2022/06/25 11:53:55;;;;;;;0.4;0.4;;;;;;;25.04;54.51953;935.183;;;;
2022/06/25 11:56:23;;;;;;;0.3;0.3;;;;;;;25.18;53.31934;935.2117;;;;
2022/06/25 11:58:51;;;;;;;0.3;0.3;;;;;;;25.42;53.78613;935.1839;;;;
2022/06/25 12:01:24;;;;;;;0.4;0.4;;;;;;;25.05;50.84961;935.1997;;;;
2022/06/25 12:03:49;;;;;;;0.5;0.5;;;;;;;25.28;52.26855;935.1791;;;;
2022/06/25 12:06:15;;;;;;;0.6;0.4;;;;;;;25.7;53.89063;935.1199;;;;
2022/06/25 12:08:46;;;;;;;0.4;0.4;;;;;;;26.02;51.52734;935.0957;;;;
2022/06/25 12:11:11;;;;;;;0.4;0.4;;;;;;;26.19;49.36914;935.0955;;;;
2022/06/25 12:13:41;;;;;;;0.4;0.4;;;;;;;26.5;50.91992;935.1049;;;;
2022/06/25 12:16:10;;;;;;;0.4;0.4;;;;;;;26.68;49.56641;934.9865;;;;
2022/06/25 12:18:40;;;;;;;1;0.4;;;;;;;26.26;51.76758;935.0242;;;;
2022/06/25 12:21:11;;;;;;;1.1;0.3;;;;;;;26.12;51.52734;934.9914;;;;
2022/06/25 12:23:36;;;;;;;0.4;0.4;;;;;;;26.13;52.91211;934.9347;;;;
2022/06/25 12:26:01;;;;;;;0.6;0.4;;;;;;;26.35;49.86133;934.8158;;;;
2022/06/25 12:28:30;;;;;;;1.6;0.4;;;;;;;25.87;54.20508;934.8699;;;;
2022/06/25 12:30:58;;;;;;;2;0.5;;;;;;;25.56;51.52148;934.8602;;;;
2022/06/25 12:33:27;;;;;;;0.3;0.3;;;;;;;25.77;51.97168;934.7958;;;;
2022/06/25 12:35:55;;;;;;;0.5;0.5;;;;;;;25.93;51.2334;934.827;;;;
2022/06/25 12:38:22;;;;;;;0.4;0.4;;;;;;;26.11;52.625;934.7736;;;;
2022/06/25 12:40:51;;;;;;;0.4;0.4;;;;;;;26.41;48.75391;934.7244;;;;
2022/06/25 12:43:16;;;;;;;1.2;0.4;;;;;;;26.36;52.06445;934.7186;;;;
2022/06/25 12:45:41;;;;;;;0.4;0.4;;;;;;;25.65;53.11621;934.6901;;;;
2022/06/25 12:48:11;;;;;;;0.6;0.5;;;;;;;25.62;51.41016;934.633;;;;
2022/06/25 12:50:36;;;;;;;1.3;0.5;;;;;;;25.69;52.4834;934.6686;;;;
2022/06/25 12:53:01;;;;;;;1;0.5;;;;;;;25.75;51.11816;934.6475;;;;
2022/06/25 12:55:29;;;;;;;0.4;0.4;;;;;;;25.77;51.27441;934.6311;;;;
2022/06/25 12:57:54;;;;;;;1.9;0.6;;;;;;;25.96;49.75977;934.5675;;;;
2022/06/25 13:00:25;;;;;;;0.4;0.4;;;;;;;26.06;49.8877;934.5764;;;;
2022/06/25 13:02:56;;;;;;;0.4;0.4;;;;;;;26.01;50.60547;934.5352;;;;
2022/06/25 13:05:21;;;;;;;1.1;0.3;;;;;;;25.83;52.52246;934.5422;;;;
2022/06/25 13:07:51;;;;;;;0.4;0.4;;;;;;;26.1;50.51953;934.5609;;;;
2022/06/25 13:10:17;;;;;;;0.4;0.4;;;;;;;26.18;50.17285;934.5403;;;;
2022/06/25 13:12:42;;;;;;;0.7;0.3;;;;;;;26.08;52.05566;934.5276;;;;
2022/06/25 13:15:20;;;;;;;0.4;0.4;;;;;;;25.99;52.4707;934.552;;;;
2022/06/25 13:17:47;;;;;;;0.6;0.5;;;;;;;26.08;49.48828;934.5706;;;;
2022/06/25 13:20:21;;;;;;;0.4;0.2;;;;;;;25.59;53.61621;934.5107;;;;
2022/06/25 13:22:50;;;;;;;0.6;0.4;;;;;;;25.65;51.50781;934.4402;;;;
2022/06/25 13:25:16;;;;;;;0.6;0.6;;;;;;;25.41;51.50391;934.464;;;;
2022/06/25 13:27:47;;;;;;;0.8;0.4;;;;;;;25.54;50.69141;934.4685;;;;
2022/06/25 13:30:18;;;;;;;0.4;0.4;;;;;;;25.78;52.90625;934.4508;;;;
2022/06/25 13:32:48;;;;;;;0.6;0.6;;;;;;;25.84;51.83789;934.4327;;;;
2022/06/25 13:35:21;;;;;;;0.4;0.4;;;;;;;26.08;48.87305;934.4103;;;;
2022/06/25 13:37:48;;;;;;;1;0.5;;;;;;;26.1;50.80371;934.4189;;;;
2022/06/25 13:40:15;;;;;;;0.3;0.3;;;;;;;26.07;49.79492;934.4305;;;;
2022/06/25 13:42:45;;;;;;;1.5;0.4;;;;;;;26.14;49.88574;934.4572;;;;
2022/06/25 13:45:20;;;;;;;0.7;0.6;;;;;;;26.21;51.71484;934.4019;;;;
2022/06/25 13:47:53;;;;;;;0.6;0.6;;;;;;;26.03;50.70117;934.4194;;;;
2022/06/25 13:50:25;;;;;;;1;0.5;;;;;;;25.9;49.69238;934.4128;;;;
2022/06/25 13:52:50;;;;;;;1.2;0.5;;;;;;;26.1;48.27246;934.3808;;;;
2022/06/25 13:55:19;;;;;;;1.2;0.5;;;;;;;26.14;47.98145;934.3748;;;;
2022/06/25 13:57:48;;;;;;;0.6;0.6;;;;;;;25.6;50.35742;934.3533;;;;
2022/06/25 14:00:13;;;;;;;0.8;0.3;;;;;;;25.55;52.33691;934.3095;;;;
2022/06/25 14:02:45;;;;;;;1;0.5;;;;;;;25.44;51.1543;934.3237;;;;
2022/06/25 14:05:08;;;;;;;0.3;0.3;;;;;;;25.39;52.58887;934.3036;;;;
2022/06/25 14:07:35;;;;;;;2.1;0.7;;;;;;;25.55;53.39844;934.3286;;;;
2022/06/25 14:10:17;;;;;;;1.6;0.4;;;;;;;25.62;51.94141;934.2449;;;;
2022/06/25 14:12:42;;;;;;;0.6;0.3;;;;;;;25.73;50.18262;934.2637;;;;
2022/06/25 14:15:18;;;;;;;0.2;0.2;;;;;;;25.74;49.00195;934.2615;;;;
2022/06/25 14:17:47;;;;;;;0.5;0.5;;;;;;;25.79;48.03809;934.2251;;;;
2022/06/25 14:20:12;;;;;;;0.5;0.5;;;;;;;25.57;51.87598;934.29;;;;
2022/06/25 14:22:46;;;;;;;0.5;0.4;;;;;;;25.58;49.50391;934.1906;;;;
2022/06/25 14:25:24;;;;;;;0.4;0.3;;;;;;;25.65;51.70996;934.1831;;;;
2022/06/25 14:27:36;;;;;;;0.4;0.4;;;;;;;25.69;49.4209;934.2301;;;;
2022/06/25 14:30:03;;;;;;;0.6;0.4;;;;;;;25.73;49.22656;934.1753;;;;
2022/06/25 14:32:28;;;;;;;0.4;0.4;;;;;;;25.76;48.81445;934.1804;;;;
2022/06/25 14:34:58;;;;;;;0.5;0.5;;;;;;;25.7;48.48926;934.1861;;;;
2022/06/25 14:42:22;;;;;;;0.4;0.4;;;;;;;25.49;48.7373;934.1067;;;;
2022/06/25 14:44:42;;;;;;;1.6;0.4;;;;;;;25.56;50.23438;934.1454;;;;
2022/06/25 14:47:07;;;;;;;0.4;0.4;;;;;;;25.46;49.84473;934.1622;;;;